Hlavní strana
METAR-TAF:

METAR-TAF

Letiště :

Pella Municipal Airport

Pella, Iowa, Spojené státy americké

zeměpisná šířka: 41-24N, zeměpisná délka: 092-56W, výška: 270 m

Aktuální stav počasí

Zpráva byla vytvořena před 12 minutami, v 00:55 UTC
Severní vítr 9 kt s nárazy do 15 kt
Teplota 1°C
Vlhkost vzduchu 75%
Tlak 1023 hPa
Viditelnost: 16.1 km
Zataženo ve výšce 3600 ft

METAR: KPEA 260055Z AUTO 36009G15KT 10SM OVC036 01/M03 A3021 RMK AO2 T00051035

Čas: 19:07 (01:07 UTC)


TAF: chybějící

Stav a předpovědi počasí z více než 4 000 letišť (zprávy METAR a TAF).

Červené a žluté tečky na mapě představují dostupné meteorologické stanice.

Když kurzor umístíte na tečku, zobrazí se název stanice.

Pak kliknutím zobrazíte stav a předpověď počasí.

Chcete-li změnit mapu, kliknutím na zelené tlačítko se znaménkem +mapu přiblížíte, kliknutím na zelené tlačítko se znaménkem – mapu oddálíte a kliknutím na zelené šipky přejdete na sousední mapy.


METAR-TAF: